FMNM/MJN METAR and TAF weather

Enter ICAO airport designator
Station Type Date Time Source
FMNM METAR 2018/12/13 20:00 UTC NOAA

FMNM 132000Z 16004KT 9999 FEW020CB 27/24 Q1013


Station Type Date Time Source
FMNM Decoded METAR 2018/12/13 20:00 UTC NOAA

Majunga, Madagascar (FMNM) 15-40S 046-21E 18M
Dec 13, 2018 - 03:00 PM EST / 2018.12.13 2000 UTC
Wind: from the SSE (160 degrees) at 5 MPH (4 KT):0
Visibility: greater than 7 mile(s):0
Sky conditions: mostly clear
Weather: Cumulonimbus clouds observed
Temperature: 80 F (27 C)
Dew Point: 75 F (24 C)
Relative Humidity: 83%
Pressure (altimeter): 29.91 in. Hg (1013 hPa)
ob: FMNM 132000Z 16004KT 9999 FEW020CB 27/24 Q1013
cycle: 20

Station Type Date Time Source
FMNM TAF 2018/12/13 18:04 UTC NOAA

TAF FMNM 131700Z 1318/1418 VRB05KT 9000 SCT020CB PROB40
TEMPO 1400/1406 4000 TSRA
BECMG 1403/1406 14010KT
BECMG 1409/1412 30012KT


Example: see airport list